Time;durP1;ratioP1;P1;durP2;ratioP2;P2;SDS_P1;SDS_P2;PMS_P1;PMS_P2;Temp;Humidity;BMP_temperature;BMP_pressure;BME280_temperature;BME280_humidity;BME280_pressure;Samples;Min_cycle;Max_cycle;Signal;HPM_P1;HPM_P2
2021/10/24 00:00:38;;;;;;;19.65;8.00;;;;;;;0.90;100.00;101069.69;5076512;28;20060;-76
2021/10/24 00:03:22;;;;;;;23.67;8.70;;;;;;;0.89;100.00;101081.72;5076465;28;20048;-76
2021/10/24 00:06:07;;;;;;;24.23;8.98;;;;;;;0.77;100.00;101081.31;5077354;28;20119;-76
2021/10/24 00:08:51;;;;;;;19.45;9.32;;;;;;;0.76;100.00;101087.28;5076966;28;20052;-76
2021/10/24 00:11:36;;;;;;;23.20;10.93;;;;;;;0.79;100.00;101091.69;5077122;28;20041;-76
2021/10/24 00:14:21;;;;;;;22.98;8.40;;;;;;;0.76;100.00;101099.31;5076953;28;20055;-76
2021/10/24 00:17:05;;;;;;;20.45;7.55;;;;;;;0.76;100.00;101099.31;5077024;28;20119;-76
2021/10/24 00:19:50;;;;;;;22.40;8.20;;;;;;;0.63;100.00;101106.63;5076762;28;20036;-76
2021/10/24 00:22:34;;;;;;;27.80;8.23;;;;;;;0.69;100.00;101111.13;5075086;28;20048;-76
2021/10/24 00:25:19;;;;;;;21.90;7.65;;;;;;;0.66;100.00;101111.88;5076893;28;20037;-76
2021/10/24 00:28:04;;;;;;;21.10;7.95;;;;;;;0.68;100.00;101110.25;5076166;28;20036;-76
2021/10/24 00:30:51;;;;;;;21.23;8.43;;;;;;;0.64;100.00;101120.38;5076600;28;20060;-76
2021/10/24 00:33:35;;;;;;;22.27;8.88;;;;;;;0.53;100.00;101122.59;5075766;28;20045;-76
2021/10/24 00:36:21;;;;;;;19.83;8.13;;;;;;;0.55;100.00;101125.19;5076476;28;20041;-76
2021/10/24 00:39:05;;;;;;;18.27;8.35;;;;;;;0.51;100.00;101119.06;5075853;28;20427;-76
2021/10/24 00:41:50;;;;;;;22.92;10.48;;;;;;;0.40;100.00;101120.38;5075679;28;20040;-76
2021/10/24 00:44:35;;;;;;;19.17;8.93;;;;;;;0.31;100.00;101115.75;5076422;28;20044;-76
2021/10/24 00:47:19;;;;;;;18.70;8.00;;;;;;;0.34;100.00;101115.88;5076366;28;20049;-76
2021/10/24 00:50:04;;;;;;;21.27;9.13;;;;;;;0.31;100.00;101118.31;5061640;28;20072;-76
2021/10/24 00:52:49;;;;;;;22.88;8.15;;;;;;;0.27;100.00;101124.19;5075508;28;20041;-76
2021/10/24 00:55:33;;;;;;;18.25;7.70;;;;;;;0.22;100.00;101115.41;5076240;28;20068;-76
2021/10/24 00:58:20;;;;;;;17.92;7.22;;;;;;;0.17;100.00;101127.25;5076620;28;20041;-76
2021/10/24 01:01:05;;;;;;;18.02;8.40;;;;;;;0.10;100.00;101130.41;5076099;28;20427;-76
2021/10/24 01:03:49;;;;;;;18.50;9.15;;;;;;;0.10;100.00;101122.66;5075469;28;20047;-76
2021/10/24 01:06:36;;;;;;;21.08;8.85;;;;;;;0.01;100.00;101124.91;5076299;28;20366;-76
2021/10/24 01:09:23;;;;;;;23.58;8.65;;;;;;;0.04;100.00;101128.47;5075318;28;20044;-76
2021/10/24 01:12:07;;;;;;;17.60;7.97;;;;;;;-0.01;100.00;101122.25;5075196;28;20043;-76
2021/10/24 01:14:51;;;;;;;16.67;7.75;;;;;;;-0.02;100.00;101126.53;5075111;28;20044;-76
2021/10/24 01:17:36;;;;;;;15.73;6.72;;;;;;;0.03;100.00;101126.69;5076031;28;20115;-76
2021/10/24 01:20:23;;;;;;;15.32;6.35;;;;;;;-0.03;100.00;101139.38;5075581;28;20500;-76
2021/10/24 01:23:09;;;;;;;19.20;7.40;;;;;;;-0.13;100.00;101135.56;5075081;28;20044;-76
2021/10/24 01:25:54;;;;;;;18.50;7.40;;;;;;;-0.14;100.00;101131.22;5075068;28;20351;-76
2021/10/24 01:28:38;;;;;;;17.13;8.23;;;;;;;-0.19;100.00;101132.75;5075945;28;20040;-76
2021/10/24 01:31:23;;;;;;;17.65;7.68;;;;;;;-0.21;100.00;101121.50;5074923;28;20059;-76
2021/10/24 01:34:09;;;;;;;22.65;8.88;;;;;;;-0.19;100.00;101119.88;5065161;28;20047;-76
2021/10/24 01:36:58;;;;;;;18.13;8.10;;;;;;;-0.23;100.00;101123.13;5081915;28;20040;-76
2021/10/24 01:39:43;;;;;;;17.08;7.63;;;;;;;-0.25;100.00;101125.66;5067883;28;20053;-76
2021/10/24 01:42:27;;;;;;;21.67;7.50;;;;;;;-0.28;100.00;101128.09;5081729;28;20045;-76
2021/10/24 01:45:12;;;;;;;16.15;7.05;;;;;;;-0.35;100.00;101126.09;5082294;28;20357;-76
2021/10/24 01:47:57;;;;;;;19.77;7.28;;;;;;;-0.34;100.00;101125.28;5081575;28;20044;-76
2021/10/24 01:50:43;;;;;;;16.85;6.68;;;;;;;-0.42;100.00;101126.69;5081743;28;20117;-76
2021/10/24 01:53:31;;;;;;;18.88;7.32;;;;;;;-0.44;100.00;101117.13;5067571;28;20465;-76
2021/10/24 01:56:15;;;;;;;20.55;8.20;;;;;;;-0.47;100.00;101123.03;5081745;28;20040;-76
2021/10/24 01:59:00;;;;;;;18.95;7.35;;;;;;;-0.57;100.00;101110.59;5081498;28;20193;-76
2021/10/24 02:02:04;;;;;;;23.08;8.55;;;;;;;-0.54;100.00;101126.19;5082131;28;20051;-76
2021/10/24 02:05:08;;;;;;;19.30;7.93;;;;;;;-0.60;100.00;101131.06;5082106;28;20040;-76
2021/10/24 02:07:53;;;;;;;20.90;7.45;;;;;;;-0.64;100.00;101136.91;5081631;28;20059;-76
2021/10/24 02:10:38;;;;;;;18.25;7.97;;;;;;;-0.63;100.00;101124.09;5081344;28;20397;-76
2021/10/24 02:13:24;;;;;;;20.45;8.13;;;;;;;-0.66;100.00;101129.13;5081317;28;20041;-75
2021/10/24 02:16:14;;;;;;;17.42;7.10;;;;;;;-0.70;100.00;101127.25;5081275;28;20032;-76
2021/10/24 02:19:03;;;;;;;17.63;7.45;;;;;;;-0.73;100.00;101127.13;5068181;28;20064;-76
2021/10/24 02:21:48;;;;;;;14.73;7.32;;;;;;;-0.80;100.00;101132.81;5067292;28;20358;-76
2021/10/24 02:24:33;;;;;;;16.20;7.40;;;;;;;-0.84;100.00;101133.53;5081978;28;20040;-76
2021/10/24 02:27:18;;;;;;;22.48;8.07;;;;;;;-0.84;100.00;101136.97;5081494;28;20102;-76
2021/10/24 02:30:05;;;;;;;18.20;7.07;;;;;;;-0.88;100.00;101147.03;5067147;28;20060;-76
2021/10/24 02:32:52;;;;;;;13.32;7.15;;;;;;;-0.86;100.00;101143.72;5067312;28;20037;-76
2021/10/24 02:35:59;;;;;;;16.38;6.93;;;;;;;-1.03;100.00;101145.59;5081444;28;20094;-76
2021/10/24 02:38:43;;;;;;;16.45;7.30;;;;;;;-1.01;100.00;101143.97;5081207;28;20037;-76
2021/10/24 02:41:29;;;;;;;16.60;7.47;;;;;;;-0.99;100.00;101138.88;5081131;28;20040;-76
2021/10/24 02:44:17;;;;;;;17.42;7.03;;;;;;;-1.07;100.00;101141.13;5081507;28;20044;-76
2021/10/24 02:47:06;;;;;;;15.45;6.95;;;;;;;-1.04;100.00;101145.50;5077921;28;20054;-76
2021/10/24 02:49:53;;;;;;;22.40;7.90;;;;;;;-1.05;100.00;101154.03;5077897;28;20048;-76
2021/10/24 02:52:38;;;;;;;19.02;7.40;;;;;;;-1.08;100.00;101156.47;5077885;28;20041;-76
2021/10/24 02:55:22;;;;;;;18.52;6.82;;;;;;;-1.10;100.00;101148.72;5077852;28;20040;-76
2021/10/24 02:58:07;;;;;;;18.83;7.70;;;;;;;-1.11;100.00;101158.91;5077746;28;20397;-76
2021/10/24 03:00:52;;;;;;;18.58;7.82;;;;;;;-1.15;100.00;101163.06;5077883;28;20040;-76
2021/10/24 03:03:36;;;;;;;13.13;6.95;;;;;;;-1.20;100.00;101169.72;5077607;28;20044;-76
2021/10/24 03:06:21;;;;;;;21.70;8.75;;;;;;;-1.20;100.00;101173.16;5063671;28;20040;-76
2021/10/24 03:09:06;;;;;;;26.23;9.32;;;;;;;-1.18;100.00;101170.63;5078162;28;20040;-76
2021/10/24 03:11:52;;;;;;;22.33;9.25;;;;;;;-1.28;100.00;101168.47;5077438;28;20094;-75
2021/10/24 03:14:36;;;;;;;25.95;9.60;;;;;;;-1.25;100.00;101174.63;5077554;28;20111;-75
2021/10/24 03:17:21;;;;;;;24.92;8.65;;;;;;;-1.28;100.00;101165.91;5077444;28;20044;-76
2021/10/24 03:20:08;;;;;;;28.63;9.60;;;;;;;-1.27;100.00;101162.50;5063364;28;20044;-76
2021/10/24 03:22:53;;;;;;;21.23;9.43;;;;;;;-1.28;100.00;101171.03;5077276;28;20052;-76
2021/10/24 03:25:37;;;;;;;27.00;9.27;;;;;;;-1.28;100.00;101168.47;5077460;28;20040;-75
2021/10/24 03:28:25;;;;;;;23.17;8.63;;;;;;;-1.32;100.00;101158.88;5077502;28;20143;-76
2021/10/24 03:31:09;;;;;;;21.60;9.00;;;;;;;-1.37;100.00;101162.91;5076928;28;20053;-75
2021/10/24 03:33:54;;;;;;;24.95;9.63;;;;;;;-1.36;100.00;101167.28;5063001;28;20418;-76
2021/10/24 03:36:41;;;;;;;19.00;8.15;;;;;;;-1.28;100.00;101171.03;5077177;28;20044;-75
2021/10/24 03:39:25;;;;;;;21.27;9.20;;;;;;;-1.30;100.00;101172.66;5077134;28;20346;-75
2021/10/24 03:42:10;;;;;;;16.65;7.20;;;;;;;-1.30;100.00;101170.09;5076990;28;20036;-76
2021/10/24 03:44:55;;;;;;;19.40;7.88;;;;;;;-1.33;100.00;101181.13;5076856;28;20036;-76
2021/10/24 03:47:39;;;;;;;17.73;7.15;;;;;;;-1.30;100.00;101167.50;5077599;28;20111;-75
2021/10/24 03:50:24;;;;;;;17.08;7.40;;;;;;;-1.38;100.00;101177.47;5076703;28;20393;-75
2021/10/24 03:53:08;;;;;;;18.20;8.80;;;;;;;-1.35;100.00;101174.16;5076580;28;20041;-76
2021/10/24 03:55:53;;;;;;;25.38;11.65;;;;;;;-1.33;100.00;101175.09;5076475;28;20430;-76
2021/10/24 03:58:37;;;;;;;21.85;10.23;;;;;;;-1.32;100.00;101177.75;5076526;28;20040;-75
2021/10/24 04:01:21;;;;;;;26.02;10.68;;;;;;;-1.32;100.00;101182.88;5076421;28;20040;-76
2021/10/24 04:04:06;;;;;;;20.15;8.75;;;;;;;-1.26;100.00;101182.28;5076436;28;20048;-76
2021/10/24 04:06:54;;;;;;;19.58;8.32;;;;;;;-1.31;100.00;101182.06;5076544;28;20107;-76
2021/10/24 04:09:39;;;;;;;24.05;9.25;;;;;;;-1.35;100.00;101190.47;5076622;28;20040;-76
2021/10/24 04:12:23;;;;;;;20.52;10.32;;;;;;;-1.36;100.00;101196.41;5076171;28;20040;-75
2021/10/24 04:15:09;;;;;;;27.13;12.65;;;;;;;-1.27;100.00;101199.41;5076223;28;20435;-76
2021/10/24 04:17:54;;;;;;;23.20;11.43;;;;;;;-1.25;100.00;101197.78;5076133;28;20079;-76
2021/10/24 04:20:40;;;;;;;22.75;11.02;;;;;;;-1.22;100.00;101199.59;5062395;28;20056;-76
2021/10/24 04:23:25;;;;;;;33.10;11.05;;;;;;;-1.21;100.00;101201.34;5076052;28;20427;-76
2021/10/24 04:26:09;;;;;;;24.27;9.88;;;;;;;-1.17;100.00;101205.81;5075944;28;20056;-76
2021/10/24 04:28:54;;;;;;;32.15;10.88;;;;;;;-1.13;100.00;101202.59;5061949;28;20044;-76
2021/10/24 04:31:38;;;;;;;30.70;10.13;;;;;;;-1.10;100.00;101210.44;5076205;28;20423;-76
2021/10/24 04:34:23;;;;;;;33.22;14.07;;;;;;;-1.09;100.00;101203.59;5076563;28;20055;-76
2021/10/24 04:37:07;;;;;;;43.53;11.50;;;;;;;-1.02;100.00;101210.75;5075808;28;20041;-76
2021/10/24 04:39:52;;;;;;;30.83;9.65;;;;;;;-1.08;100.00;101208.78;5075870;28;20130;-76
2021/10/24 04:42:38;;;;;;;25.17;9.27;;;;;;;-1.00;100.00;101207.47;5076413;28;20058;-76
2021/10/24 04:45:25;;;;;;;29.83;9.65;;;;;;;-0.94;100.00;101206.84;5075623;28;20446;-76
2021/10/24 04:48:10;;;;;;;35.75;9.15;;;;;;;-0.99;100.00;101216.03;5076235;28;20429;-76
2021/10/24 04:51:00;;;;;;;32.55;8.75;;;;;;;-0.95;100.00;101208.50;5075361;28;20043;-76
2021/10/24 04:53:44;;;;;;;29.23;8.93;;;;;;;-0.90;100.00;101208.72;5076299;28;20445;-76
2021/10/24 04:56:29;;;;;;;59.60;9.30;;;;;;;-0.92;100.00;101220.63;5075490;28;20052;-76
2021/10/24 04:59:16;;;;;;;23.65;8.75;;;;;;;-0.92;100.00;101215.50;5075317;28;20044;-76
2021/10/24 05:02:02;;;;;;;42.08;8.63;;;;;;;-0.84;100.00;101214.16;5075371;28;20037;-76
2021/10/24 05:04:46;;;;;;;43.00;7.53;;;;;;;-0.87;100.00;101213.13;5075458;28;20044;-76
2021/10/24 05:07:31;;;;;;;65.10;8.98;;;;;;;-0.80;100.00;101215.16;5075115;28;20044;-76
2021/10/24 05:10:16;;;;;;;45.75;9.23;;;;;;;-0.84;100.00;101215.84;5076053;28;20041;-76
2021/10/24 05:13:01;;;;;;;21.17;8.60;;;;;;;-0.77;100.00;101221.31;5075154;28;20048;-76
2021/10/24 05:15:45;;;;;;;21.52;9.20;;;;;;;-0.70;100.00;101217.31;5075537;28;20043;-76
2021/10/24 05:18:30;;;;;;;44.33;9.02;;;;;;;-0.74;100.00;101215.44;5075248;28;20040;-76
2021/10/24 05:21:15;;;;;;;17.48;8.20;;;;;;;-0.77;100.00;101217.88;5075127;28;20040;-76
2021/10/24 05:24:00;;;;;;;21.00;10.50;;;;;;;-0.77;100.00;101217.88;5075167;28;20055;-76
2021/10/24 05:26:45;;;;;;;25.95;11.25;;;;;;;-0.74;100.00;101221.44;5075425;28;20044;-76
2021/10/24 05:29:30;;;;;;;17.58;8.80;;;;;;;-0.81;100.00;101215.97;5060756;28;20037;-76
2021/10/24 05:32:15;;;;;;;28.95;8.50;;;;;;;-0.86;100.00;101226.06;5076102;28;20037;-76
2021/10/24 05:34:59;;;;;;;17.80;8.20;;;;;;;-0.85;100.00;101234.66;5076092;28;20037;-76
2021/10/24 05:37:46;;;;;;;20.65;8.60;;;;;;;-0.81;100.00;101234.00;5076302;28;20040;-76
2021/10/24 05:40:31;;;;;;;17.20;9.23;;;;;;;-0.81;100.00;101237.44;5075633;28;20045;-76
2021/10/24 05:43:20;;;;;;;61.00;9.43;;;;;;;-0.78;100.00;101235.00;5076127;28;20064;-76
2021/10/24 05:46:06;;;;;;;502.85;210.52;;;;;;;-0.99;100.00;101234.94;5075400;28;20060;-76
2021/10/24 05:48:51;;;;;;;210.68;93.43;;;;;;;-0.87;100.00;101238.88;5075810;28;20098;-76
2021/10/24 05:51:40;;;;;;;179.95;87.47;;;;;;;-0.84;100.00;101246.72;5076561;28;20045;-76
2021/10/24 05:54:26;;;;;;;164.45;89.70;;;;;;;-0.89;100.00;101248.19;5075258;28;20044;-76
2021/10/24 05:57:11;;;;;;;95.70;48.05;;;;;;;-0.78;100.00;101244.38;5061841;28;20053;-76
2021/10/24 06:00:15;;;;;;;55.40;23.65;;;;;;;-0.84;100.00;101247.59;5076943;28;20394;-76
2021/10/24 06:03:07;;;;;;;85.88;38.92;;;;;;;-0.84;100.00;101250.16;5076735;28;20041;-76
2021/10/24 06:06:10;;;;;;;178.82;56.45;;;;;;;-0.74;100.00;101256.59;5075742;28;20343;-76
2021/10/24 06:08:54;;;;;;;64.20;24.42;;;;;;;-0.68;100.00;101259.44;5075846;28;20370;-76
2021/10/24 06:11:59;;;;;;;32.58;15.88;;;;;;;-0.61;100.00;101265.72;5074878;28;20040;-76
2021/10/24 06:14:44;;;;;;;199.52;51.63;;;;;;;-0.51;100.00;101262.72;5075052;28;20323;-76
2021/10/24 06:17:30;;;;;;;81.75;25.65;;;;;;;-0.56;100.00;101271.94;5075318;28;20166;-76
2021/10/24 06:20:16;;;;;;;34.50;15.60;;;;;;;-0.65;100.00;101281.81;5076700;28;20041;-76
2021/10/24 06:23:02;;;;;;;29.98;12.45;;;;;;;-0.56;100.00;101284.81;5065112;28;20079;-76
2021/10/24 06:25:47;;;;;;;19.27;11.68;;;;;;;-0.37;100.00;101295.09;5078760;28;20415;-76
2021/10/24 06:28:32;;;;;;;21.50;9.43;;;;;;;-0.38;100.00;101288.19;5078429;28;20406;-76
2021/10/24 06:31:17;;;;;;;18.60;8.70;;;;;;;-0.29;100.00;101298.00;5064443;28;20059;-76
2021/10/24 06:34:24;;;;;;;37.60;8.90;;;;;;;-0.14;100.00;101298.63;5065060;28;20052;-76
2021/10/24 06:37:44;;;;;;;25.65;9.65;;;;;;;-0.14;100.00;101305.47;5061808;28;20401;-76
2021/10/24 06:40:30;;;;;;;23.13;10.60;;;;;;;-0.06;100.00;101307.56;5077645;28;20040;-75
2021/10/24 06:43:21;;;;;;;29.15;10.20;;;;;;;-0.07;100.00;101302.34;5077056;28;20045;-76
2021/10/24 06:46:24;;;;;;;19.77;8.98;;;;;;;-0.04;100.00;101305.03;5076799;28;20045;-76
2021/10/24 06:49:28;;;;;;;21.98;10.60;;;;;;;0.18;100.00;101304.25;5077023;28;20103;-76
2021/10/24 06:52:24;;;;;;;31.73;12.55;;;;;;;0.18;100.00;101312.84;5075936;28;20112;-76
2021/10/24 06:55:38;;;;;;;;;;;;;;;0.23;100.00;101318.19;5060541;28;20048;-76
2021/10/24 06:58:41;;;;;;;38.35;16.75;;;;;;;0.13;100.00;101323.78;5075995;28;20387;-76
2021/10/24 07:01:54;;;;;;;44.78;15.57;;;;;;;0.07;100.00;101326.13;5076535;28;20044;-75
2021/10/24 07:04:56;;;;;;;45.78;14.98;;;;;;;0.32;100.00;101323.69;5076458;28;20045;-75
2021/10/24 07:07:47;;;;;;;31.55;12.45;;;;;;;0.47;100.00;101324.31;5075762;28;20520;-75
2021/10/24 07:10:31;;;;;;;40.08;11.73;;;;;;;0.41;100.00;101328.34;5076092;28;20374;-76
2021/10/24 07:13:16;;;;;;;32.88;13.85;;;;;;;0.70;100.00;101327.81;5076496;28;20275;-76
2021/10/24 07:16:11;;;;;;;35.45;15.95;;;;;;;0.75;100.00;101328.00;5075836;28;20410;-76
2021/10/24 07:18:56;;;;;;;60.47;21.92;;;;;;;0.61;100.00;101335.19;5077568;28;20040;-77
2021/10/24 07:21:41;;;;;;;80.72;32.03;;;;;;;0.84;100.00;101332.63;5078435;28;20048;-76
2021/10/24 07:24:46;;;;;;;59.80;28.08;;;;;;;1.00;100.00;101337.53;5077917;28;20048;-77
2021/10/24 07:27:30;;;;;;;40.78;24.50;;;;;;;1.16;100.00;101336.41;5077619;28;20378;-76
2021/10/24 07:30:16;;;;;;;50.72;23.00;;;;;;;1.01;100.00;101339.31;5077797;28;20055;-76
2021/10/24 07:33:05;;;;;;;56.70;17.55;;;;;;;1.13;100.00;101344.03;5077235;28;20067;-76
2021/10/24 07:36:21;;;;;;;44.65;23.73;;;;;;;1.31;100.00;101349.91;5067326;28;20045;-76
2021/10/24 07:39:05;;;;;;;86.22;30.35;;;;;;;1.53;100.00;101346.41;5078328;28;20068;-76
2021/10/24 07:41:50;;;;;;;213.75;97.10;;;;;;;1.60;100.00;101352.66;5077204;28;20419;-76
2021/10/24 07:44:34;;;;;;;108.38;52.38;;;;;;;1.48;100.00;101358.25;5077564;28;20115;-76
2021/10/24 07:47:20;;;;;;;97.38;26.15;;;;;;;1.76;100.00;101348.94;5063029;28;20047;-76
2021/10/24 07:50:09;;;;;;;145.82;44.60;;;;;;;1.71;100.00;101359.09;5077099;28;20040;-76
2021/10/24 07:52:59;;;;;;;94.50;26.38;;;;;;;1.78;100.00;101355.88;5077064;28;20051;-76
2021/10/24 07:55:53;;;;;;;470.63;185.18;;;;;;;2.06;100.00;101356.84;5063790;28;20045;-76
2021/10/24 07:58:55;;;;;;;418.48;161.85;;;;;;;2.40;100.00;101350.22;5077237;28;20045;-76
2021/10/24 08:01:41;;;;;;;272.48;106.18;;;;;;;2.47;100.00;101358.25;5076822;28;20111;-76
2021/10/24 08:04:33;;;;;;;197.55;87.72;;;;;;;2.49;100.00;101358.28;5076619;28;20045;-76
2021/10/24 08:07:17;;;;;;;138.68;68.93;;;;;;;2.77;100.00;101360.03;5077087;28;20040;-75
2021/10/24 08:10:03;;;;;;;58.88;33.03;;;;;;;2.96;100.00;101361.50;5076468;28;20351;-76
2021/10/24 08:12:49;;;;;;;57.55;32.83;;;;;;;3.13;100.00;101368.03;5062916;28;20462;-75
2021/10/24 08:15:35;;;;;;;62.20;28.98;;;;;;;3.39;100.00;101370.53;5076638;28;20047;-75
2021/10/24 08:18:20;;;;;;;44.08;27.08;;;;;;;3.60;100.00;101359.88;5062418;28;20037;-75
2021/10/24 08:21:23;;;;;;;41.85;24.00;;;;;;;3.80;100.00;101369.06;5077465;28;20082;-74
2021/10/24 08:24:09;;;;;;;49.40;26.50;;;;;;;4.40;100.00;101365.44;5076939;28;20051;-73
2021/10/24 08:27:02;;;;;;;42.33;27.15;;;;;;;4.44;99.59;101362.09;5063509;28;20052;-74
2021/10/24 08:29:46;;;;;;;63.38;36.33;;;;;;;4.76;99.56;101369.78;5075951;28;20056;-75
2021/10/24 08:32:57;;;;;;;49.60;22.85;;;;;;;4.73;97.06;101360.19;5076193;28;20063;-75
2021/10/24 08:35:41;;;;;;;48.25;21.70;;;;;;;5.14;96.81;101362.84;5076797;28;20045;-75
2021/10/24 08:38:27;;;;;;;72.10;30.60;;;;;;;5.15;97.91;101360.28;5076207;28;20427;-75
2021/10/24 08:41:12;;;;;;;41.67;21.30;;;;;;;5.35;96.08;101358.09;5076817;28;20064;-74
2021/10/24 08:44:02;;;;;;;127.03;45.28;;;;;;;5.22;95.22;101363.00;5061153;28;20067;-75
2021/10/24 08:46:46;;;;;;;127.03;47.90;;;;;;;5.35;96.58;101358.09;5076530;28;20044;-75
2021/10/24 08:49:31;;;;;;;77.32;34.92;;;;;;;5.20;95.70;101362.09;5076727;28;20044;-75
2021/10/24 08:52:18;;;;;;;86.25;38.95;;;;;;;5.56;96.77;101362.00;5076253;28;20036;-75
2021/10/24 08:55:03;;;;;;;167.73;65.72;;;;;;;5.47;96.15;101361.81;5076447;28;20435;-75
2021/10/24 08:57:49;;;;;;;83.75;39.90;;;;;;;6.26;93.37;101357.25;5076888;28;20040;-75
2021/10/24 09:00:33;;;;;;;98.82;40.42;;;;;;;7.00;90.03;101359.28;5076807;28;20040;-75
2021/10/24 09:03:18;;;;;;;111.53;45.60;;;;;;;7.61;87.96;101361.81;5076768;28;20102;-75
2021/10/24 09:06:05;;;;;;;181.60;105.85;;;;;;;7.18;87.78;101369.97;5075518;28;20040;-75
2021/10/24 09:08:50;;;;;;;105.60;64.43;;;;;;;6.82;89.55;101362.47;5076766;28;20040;-75
2021/10/24 09:11:34;;;;;;;51.20;31.80;;;;;;;7.16;87.96;101366.44;5076255;28;20043;-75
2021/10/24 09:14:55;;;;;;;40.30;22.77;;;;;;;7.52;88.80;101367.78;5075979;28;20072;-75
2021/10/24 09:17:40;;;;;;;35.85;21.98;;;;;;;7.96;85.36;101354.34;4981834;28;20068;-75
2021/10/24 09:20:27;;;;;;;30.17;18.60;;;;;;;8.54;83.69;101356.63;5076594;28;20407;-75
2021/10/24 09:23:14;;;;;;;62.58;41.08;;;;;;;8.98;81.30;101354.34;5075557;28;20109;-75
2021/10/24 09:25:58;;;;;;;48.42;33.72;;;;;;;8.71;83.08;101356.75;5076073;28;20041;-75
2021/10/24 09:28:59;;;;;;;26.40;16.67;;;;;;;9.28;80.38;101363.22;5076515;28;20044;-75
2021/10/24 09:31:51;;;;;;;34.70;17.55;;;;;;;9.23;80.92;101357.97;5075491;28;20427;-75
2021/10/24 09:34:35;;;;;;;28.38;17.13;;;;;;;9.70;79.33;101354.66;5075854;28;20165;-75
2021/10/24 09:37:49;;;;;;;25.83;15.25;;;;;;;9.61;79.33;101357.25;5076464;28;20119;-75
2021/10/24 09:40:59;;;;;;;18.33;10.35;;;;;;;9.71;77.48;101361.63;5055166;28;20118;-75
2021/10/24 09:43:47;;;;;;;20.75;11.20;;;;;;;9.72;78.75;101358.16;5062093;28;20040;-75
2021/10/24 09:46:32;;;;;;;36.92;17.48;;;;;;;10.18;76.88;101355.63;5075280;28;20036;-75
2021/10/24 09:49:18;;;;;;;30.60;15.40;;;;;;;9.97;76.33;101352.97;5075769;28;20045;-75
2021/10/24 09:52:24;;;;;;;27.90;14.20;;;;;;;10.23;76.36;101350.38;5061343;28;20040;-75
2021/10/24 09:55:16;;;;;;;22.95;10.07;;;;;;;10.82;73.96;101356.50;5063995;28;20062;-76
2021/10/24 09:58:02;;;;;;;22.33;10.18;;;;;;;10.39;75.22;101344.31;5079625;28;20048;-75
2021/10/24 10:00:47;;;;;;;42.30;18.05;;;;;;;10.53;73.08;101344.34;5079798;28;20044;-76
2021/10/24 10:03:35;;;;;;;32.90;16.30;;;;;;;11.06;71.58;101340.75;5078948;28;20040;-76
2021/10/24 10:06:23;;;;;;;32.53;14.18;;;;;;;11.14;70.88;101338.97;5079059;28;20111;-75
2021/10/24 10:09:07;;;;;;;26.17;11.10;;;;;;;11.27;71.56;101331.91;5065280;28;20040;-76
2021/10/24 10:11:58;;;;;;;21.80;7.97;;;;;;;10.92;71.54;101338.16;5079760;28;20048;-76
2021/10/24 10:14:45;;;;;;;19.05;7.72;;;;;;;11.08;69.93;101335.47;5064764;28;20048;-76
2021/10/24 10:17:31;;;;;;;13.63;5.88;;;;;;;11.17;69.97;101341.56;5079896;28;20308;-75
2021/10/24 10:20:24;;;;;;;14.88;6.38;;;;;;;11.32;68.51;101339.78;5064989;28;20470;-76
2021/10/24 10:23:12;;;;;;;17.92;8.18;;;;;;;11.44;69.29;101331.88;5078816;28;20048;-76
2021/10/24 10:25:57;;;;;;;13.23;6.13;;;;;;;11.41;67.86;101337.13;5064791;28;20040;-76
2021/10/24 10:28:46;;;;;;;12.57;5.72;;;;;;;11.59;65.51;101326.53;5078588;28;20052;-76
2021/10/24 10:31:32;;;;;;;14.02;5.22;;;;;;;11.84;65.91;101335.19;5078132;28;20060;-76
2021/10/24 10:34:16;;;;;;;18.48;6.70;;;;;;;11.46;64.62;101335.34;5078262;28;20125;-75
2021/10/24 10:37:01;;;;;;;10.07;3.22;;;;;;;12.04;64.30;101321.06;5079253;28;20133;-76
2021/10/24 10:39:45;;;;;;;7.40;3.03;;;;;;;11.90;63.22;101319.41;5064092;28;20074;-77
2021/10/24 10:42:30;;;;;;;14.60;4.50;;;;;;;11.92;63.95;101324.63;5078792;28;20398;-77
2021/10/24 10:45:13;;;;;;;24.98;8.63;;;;;;;11.74;63.67;101320.34;5078773;28;20064;-76
2021/10/24 10:48:07;;;;;;;15.02;5.75;;;;;;;11.49;63.63;101324.84;5079339;28;20036;-77
2021/10/24 10:51:13;;;;;;;13.27;4.32;;;;;;;11.37;62.89;101317.88;5078650;28;20101;-76
2021/10/24 10:54:03;;;;;;;11.73;4.00;;;;;;;11.62;62.40;101315.16;5077004;28;20048;-77
2021/10/24 10:56:55;;;;;;;9.70;3.20;;;;;;;12.16;62.65;101318.34;5059551;28;20044;-77
2021/10/24 10:59:40;;;;;;;20.20;7.13;;;;;;;11.84;62.17;101323.78;5056737;28;20041;-77
2021/10/24 11:02:27;;;;;;;21.48;7.40;;;;;;;12.15;60.94;101311.31;5075493;28;20331;-77
2021/10/24 11:05:33;;;;;;;24.35;11.02;;;;;;;12.30;60.54;101308.59;5076493;28;20048;-77
2021/10/24 11:08:50;;;;;;;28.83;10.25;;;;;;;12.13;60.48;101313.09;5076471;28;20047;-77
2021/10/24 11:14:22;;;;;;;17.27;7.72;;;;;;;12.47;58.85;101308.44;5076445;28;20037;-77
2021/10/24 11:17:07;;;;;;;19.70;7.13;;;;;;;12.48;60.00;101307.56;5076375;28;20450;-78
2021/10/24 11:19:51;;;;;;;22.10;9.50;;;;;;;12.45;61.12;101298.84;5076188;28;20048;-78
2021/10/24 11:22:36;;;;;;;39.65;15.57;;;;;;;12.55;60.60;101296.09;5075486;28;20047;-78
2021/10/24 11:25:26;;;;;;;45.40;21.60;;;;;;;12.34;59.21;101298.91;5061566;28;20244;-78
2021/10/24 11:28:17;;;;;;;23.60;9.25;;;;;;;12.51;58.30;101291.78;5076302;28;20040;-78
2021/10/24 11:31:07;;;;;;;16.35;7.68;;;;;;;12.39;57.05;101294.50;5075866;28;20415;-77
2021/10/24 11:33:52;;;;;;;12.52;5.68;;;;;;;11.84;59.07;101287.03;5078436;28;20040;-77
2021/10/24 11:36:44;;;;;;;16.35;5.32;;;;;;;12.20;59.25;101296.41;5077592;28;20044;-78
2021/10/24 11:39:29;;;;;;;11.05;5.35;;;;;;;12.07;58.95;101290.38;5078404;28;20415;-77
2021/10/24 11:42:15;;;;;;;13.63;3.53;;;;;;;12.09;60.08;101293.88;5078348;28;20484;-78
2021/10/24 11:45:22;;;;;;;8.40;3.45;;;;;;;12.10;59.42;101286.88;5063271;28;20044;-78
2021/10/24 11:48:26;;;;;;;10.50;2.67;;;;;;;12.01;58.45;101293.06;5077471;28;20041;-77
2021/10/24 11:51:12;;;;;;;21.35;14.45;;;;;;;12.20;59.25;101293.78;5076910;28;20045;-77
2021/10/24 11:53:56;;;;;;;11.77;5.55;;;;;;;12.27;61.13;101284.09;5077310;28;20044;-77
2021/10/24 11:57:13;;;;;;;14.88;5.00;;;;;;;12.44;58.88;101284.81;5077515;28;20049;-77
2021/10/24 12:00:06;;;;;;;15.70;4.00;;;;;;;12.62;58.65;101281.13;5062609;28;20048;-77
2021/10/24 12:03:01;;;;;;;10.63;2.90;;;;;;;12.33;57.22;101282.28;5076682;28;20050;-77
2021/10/24 12:05:47;;;;;;;11.48;4.25;;;;;;;12.65;57.34;101280.25;5076587;28;20049;-77
2021/10/24 12:08:45;;;;;;;20.63;9.02;;;;;;;12.54;57.13;101281.19;5077498;28;20354;-77
2021/10/24 12:11:45;;;;;;;8.43;2.60;;;;;;;12.28;58.60;101260.41;5077059;28;20041;-77
2021/10/24 12:14:30;;;;;;;12.02;4.95;;;;;;;12.60;57.87;101270.63;5077338;28;20044;-77
2021/10/24 12:17:17;;;;;;;13.10;6.30;;;;;;;12.31;58.84;101270.03;5076601;28;20045;-77
2021/10/24 12:20:22;;;;;;;11.23;4.50;;;;;;;12.03;59.70;101262.41;5076966;28;20040;-77
2021/10/24 12:23:16;;;;;;;11.77;4.15;;;;;;;12.02;59.45;101260.66;5076489;28;20446;-77
2021/10/24 12:26:04;;;;;;;8.52;3.17;;;;;;;11.96;59.53;101254.56;5076411;28;20040;-77
2021/10/24 12:28:49;;;;;;;9.23;2.75;;;;;;;11.90;59.93;101245.00;5076147;28;20047;-77
2021/10/24 12:31:34;;;;;;;10.73;2.72;;;;;;;11.76;59.63;101237.19;5076854;28;20462;-77
2021/10/24 12:34:18;;;;;;;9.75;1.90;;;;;;;11.89;58.59;101241.53;5076214;28;20040;-77
2021/10/24 12:37:14;;;;;;;6.45;2.88;;;;;;;11.77;59.61;101230.22;5076722;28;20044;-77
2021/10/24 12:40:14;;;;;;;13.75;5.38;;;;;;;11.82;58.67;101220.53;5076615;28;20415;-77
2021/10/24 12:43:13;;;;;;;14.93;3.88;;;;;;;11.47;59.53;101224.25;5076018;28;20442;-77
2021/10/24 12:46:02;;;;;;;25.98;12.30;;;;;;;11.27;60.09;101221.75;5076068;28;20068;-77
2021/10/24 12:48:47;;;;;;;20.13;10.95;;;;;;;11.04;61.51;101224.50;5076063;28;20421;-77
2021/10/24 12:51:31;;;;;;;28.10;15.20;;;;;;;11.33;61.65;101218.25;5076706;28;20048;-77